Time;durP1;ratioP1;P1;durP2;ratioP2;P2;SDS_P1;SDS_P2;PMS_P1;PMS_P2;Temp;Humidity;BMP_temperature;BMP_pressure;BME280_temperature;BME280_humidity;BME280_pressure;Samples;Min_cycle;Max_cycle;Signal;HPM_P1;HPM_P2
2020/12/26 00:01:58;;;;;;;7.17;3.47;;;2.20;99.90;;;-0.17;100.00;100925.47;4332205;28;10000836;-67
2020/12/26 00:04:24;;;;;;;6.17;3.20;;;2.20;99.90;;;-0.25;100.00;100932.91;4037657;28;10000545;-66
2020/12/26 00:06:51;;;;;;;4.83;3.40;;;2.40;99.90;;;-0.24;100.00;100927.53;3176080;28;10000891;-66
2020/12/26 00:09:17;;;;;;;7.63;3.23;;;2.20;99.90;;;-0.22;100.00;100922.19;4927624;28;102702;-66
2020/12/26 00:11:44;;;;;;;7.20;3.80;;;2.00;99.90;;;-0.19;100.00;100922.06;3994434;28;10000593;-66
2020/12/26 00:14:11;;;;;;;6.57;3.13;;;2.00;99.90;;;-0.24;100.00;100924.91;4841588;28;100606;-66
2020/12/26 00:16:37;;;;;;;3.80;3.07;;;2.20;99.90;;;-0.28;100.00;100935.66;4841663;28;100101;-67
2020/12/26 00:19:04;;;;;;;5.13;3.37;;;2.20;99.90;;;-0.27;100.00;100938.22;4841130;28;101426;-66
2020/12/26 00:21:31;;;;;;;6.90;3.27;;;3.30;99.90;;;-0.23;100.00;100929.25;4840762;28;101298;-66
2020/12/26 00:23:57;;;;;;;7.23;3.50;;;2.10;99.90;;;-0.28;100.00;100927.78;3973894;28;10000269;-65
2020/12/26 00:26:23;;;;;;;5.80;2.80;;;2.10;99.90;;;-0.36;100.00;100923.72;4841265;28;100349;-64
2020/12/26 00:28:51;;;;;;;5.60;3.23;;;2.90;99.90;;;-0.32;100.00;100926.22;4840815;28;100198;-65
2020/12/26 00:31:18;;;;;;;8.63;3.00;;;2.00;99.90;;;-0.33;100.00;100924.50;4840870;28;100241;-67
2020/12/26 00:33:44;;;;;;;7.83;2.77;;;2.20;99.90;;;-0.33;100.00;100927.13;4843078;28;101449;-67
2020/12/26 00:36:11;;;;;;;4.93;2.63;;;2.00;99.90;;;-0.32;100.00;100936.72;4843271;28;101223;-66
2020/12/26 00:38:37;;;;;;;6.30;2.70;;;2.20;99.90;;;-0.30;100.00;100932.25;4842312;28;100263;-65
2020/12/26 00:41:04;;;;;;;4.10;2.47;;;2.00;99.90;;;-0.33;100.00;100927.13;4843394;28;100381;-65
2020/12/26 00:43:30;;;;;;;4.47;2.40;;;2.00;99.90;;;-0.34;100.00;100931.53;4857931;28;103318;-65
2020/12/26 00:45:58;;;;;;;6.67;2.50;;;2.00;99.90;;;-0.30;100.00;100927.84;4843878;28;101453;-66
2020/12/26 00:48:24;;;;;;;4.27;2.20;;;2.00;99.90;;;-0.31;100.00;100930.53;4844405;28;100200;-65
2020/12/26 00:50:51;;;;;;;6.03;2.57;;;1.70;99.90;;;-0.33;100.00;100922.72;4857278;28;100404;-65
2020/12/26 00:53:17;;;;;;;4.30;2.10;;;2.00;99.90;;;-0.33;100.00;100909.56;4859498;28;101582;-66
2020/12/26 00:55:44;;;;;;;4.07;2.57;;;2.00;99.90;;;-0.33;100.00;100925.34;4844583;28;101572;-68
2020/12/26 00:58:11;;;;;;;3.27;2.00;;;2.00;99.90;;;-0.34;100.00;100922.78;4859599;28;100035;-64
2020/12/26 01:00:38;;;;;;;4.90;2.10;;;1.90;99.90;;;-0.36;100.00;100923.72;4845274;28;100301;-65
2020/12/26 01:03:27;;;;;;;3.97;2.30;;;2.00;99.90;;;-0.33;100.00;100916.59;4845166;28;100174;-65
2020/12/26 01:05:54;;;;;;;4.30;1.83;;;1.90;99.90;;;-0.34;100.00;100914.91;4845467;28;100630;-67
2020/12/26 01:08:20;;;;;;;3.53;1.90;;;2.00;99.90;;;-0.38;100.00;100920.34;4845520;28;99975;-65
2020/12/26 01:10:47;;;;;;;4.80;1.67;;;1.90;99.90;;;-0.39;100.00;100920.41;4844127;28;100478;-65
2020/12/26 01:13:13;;;;;;;2.80;2.07;;;2.00;99.90;;;-0.37;100.00;100929.91;4845962;28;100716;-65
2020/12/26 01:15:40;;;;;;;4.27;2.00;;;1.90;99.90;;;-0.42;100.00;100923.16;4845149;28;100392;-64
2020/12/26 01:18:06;;;;;;;3.07;1.97;;;0.70;99.90;;;-0.39;100.00;100926.50;4845313;28;100359;-64
2020/12/26 01:20:33;;;;;;;5.03;1.90;;;1.80;99.90;;;-0.41;100.00;100924.88;4844659;28;100242;-65
2020/12/26 01:23:00;;;;;;;6.30;2.00;;;1.90;99.90;;;-0.45;100.00;100923.31;4845051;28;101385;-66
2020/12/26 01:25:26;;;;;;;2.33;1.97;;;1.90;99.90;;;-0.47;100.00;100931.25;4844595;28;100623;-66
2020/12/26 01:27:53;;;;;;;3.87;1.90;;;1.90;99.90;;;-0.48;100.00;100928.69;4845522;28;100119;-65
2020/12/26 01:30:19;;;;;;;5.03;1.60;;;1.80;99.90;;;-0.49;100.00;100934.88;4844749;28;100193;-66
2020/12/26 01:32:46;;;;;;;3.53;2.00;;;1.90;99.90;;;-0.52;100.00;100937.69;4845300;28;101455;-66
2020/12/26 01:35:12;;;;;;;5.77;2.37;;;1.90;99.90;;;-0.53;100.00;100930.72;4844883;28;100813;-66
2020/12/26 01:37:39;;;;;;;3.43;1.80;;;1.80;99.90;;;-0.55;100.00;100937.81;4845899;28;100060;-65
2020/12/26 01:40:10;;;;;;;3.80;2.37;;;1.70;99.90;;;-0.58;100.00;100940.59;4844707;28;100224;-66
2020/12/26 01:42:38;;;;;;;2.73;1.87;;;1.50;99.90;;;-0.58;100.00;100936.19;4844607;28;101111;-66
2020/12/26 01:45:05;;;;;;;7.00;1.87;;;1.60;99.90;;;-0.56;100.00;100941.38;4843978;28;100392;-67
2020/12/26 01:47:32;;;;;;;5.00;1.80;;;1.70;99.90;;;-0.55;100.00;100948.34;4845129;28;99963;-65
2020/12/26 01:50:00;;;;;;;4.57;2.20;;;1.70;99.90;;;-0.52;100.00;100941.16;4851892;28;99922;-65
2020/12/26 01:52:27;;;;;;;4.13;1.53;;;1.60;99.90;;;-0.56;100.00;100939.59;4851843;28;100022;-65
2020/12/26 01:54:55;;;;;;;5.40;2.00;;;1.60;99.90;;;-0.57;100.00;100934.41;4844981;28;100448;-64
2020/12/26 01:57:32;;;;;;;3.17;1.70;;;1.60;99.90;;;-0.57;100.00;100931.78;4844971;28;100097;-67
2020/12/26 01:59:59;;;;;;;6.27;1.87;;;1.80;99.90;;;-0.56;100.00;100933.47;4858486;28;100389;-65
2020/12/26 02:02:25;;;;;;;4.47;2.10;;;1.80;99.90;;;-0.54;100.00;100926.38;4844866;28;100012;-65
2020/12/26 02:04:52;;;;;;;7.60;2.03;;;1.60;99.90;;;-0.56;100.00;100930.84;4844694;28;100526;-65
2020/12/26 02:07:18;;;;;;;2.90;1.70;;;1.70;99.90;;;-0.58;100.00;100932.69;4844896;28;100330;-65
2020/12/26 02:09:45;;;;;;;3.33;1.70;;;1.70;99.90;;;-0.57;100.00;100935.25;4844330;28;99925;-67
2020/12/26 02:12:13;;;;;;;2.67;1.50;;;1.70;99.90;;;-0.56;100.00;100936.09;4844787;28;100936;-67
2020/12/26 02:14:46;;;;;;;2.77;1.30;;;1.60;99.90;;;-0.53;100.00;100939.47;4844117;28;101039;-66
2020/12/26 02:17:12;;;;;;;3.03;1.60;;;1.60;99.90;;;-0.51;100.00;100934.97;4843725;28;99968;-66
2020/12/26 02:19:39;;;;;;;3.87;1.60;;;1.00;99.90;;;-0.49;100.00;100932.25;4843889;28;100523;-66
2020/12/26 02:22:06;;;;;;;2.77;1.37;;;1.80;99.90;;;-0.50;100.00;100928.81;4846421;28;101327;-68
2020/12/26 02:24:33;;;;;;;3.77;1.47;;;1.70;99.90;;;-0.45;100.00;100925.94;4846646;28;101310;-66
2020/12/26 02:27:00;;;;;;;3.97;1.60;;;1.70;99.90;;;-0.46;100.00;100937.38;4848089;28;100067;-66
2020/12/26 02:29:26;;;;;;;3.20;1.60;;;1.70;99.90;;;-0.48;100.00;100939.22;4847333;28;100070;-67
2020/12/26 02:31:53;;;;;;;2.90;1.50;;;1.70;99.90;;;-0.48;100.00;100939.22;4847287;28;100107;-67
2020/12/26 02:34:19;;;;;;;3.77;1.80;;;1.80;99.90;;;-0.49;100.00;100935.72;4849856;28;101234;-66
2020/12/26 02:36:45;;;;;;;4.07;2.00;;;1.80;99.90;;;-0.49;100.00;100941.00;4846777;28;100325;-66
2020/12/26 02:39:12;;;;;;;1.90;1.50;;;1.60;99.90;;;-0.47;100.00;100944.41;4846818;28;99990;-68
2020/12/26 02:41:39;;;;;;;2.87;1.50;;;1.70;99.90;;;-0.47;100.00;100951.44;4847068;28;101215;-67
2020/12/26 02:44:06;;;;;;;4.63;2.00;;;2.00;99.90;;;-0.50;100.00;100947.22;4847232;28;100602;-68
2020/12/26 02:46:32;;;;;;;4.47;2.30;;;1.80;99.90;;;-0.49;100.00;100954.13;4846915;28;99925;-66
2020/12/26 02:48:59;;;;;;;4.33;2.33;;;2.90;99.90;;;-0.50;100.00;100946.34;4846916;28;100296;-65
2020/12/26 02:51:25;;;;;;;3.40;2.20;;;1.90;99.90;;;-0.51;100.00;100948.13;4846988;28;100684;-68
2020/12/26 02:53:52;;;;;;;3.60;2.60;;;1.70;99.90;;;-0.54;100.00;100950.03;4846902;28;100296;-66
2020/12/26 02:56:18;;;;;;;5.17;2.50;;;1.70;99.90;;;-0.54;100.00;100947.41;4846471;28;100228;-64
2020/12/26 02:58:46;;;;;;;4.63;2.50;;;2.30;99.90;;;-0.53;100.00;100957.00;4846567;28;100145;-65
2020/12/26 03:01:13;;;;;;;3.60;2.60;;;1.70;99.90;;;-0.56;100.00;100947.47;4847037;28;100890;-66
2020/12/26 03:03:39;;;;;;;5.53;3.13;;;1.70;99.90;;;-0.56;100.00;100951.88;4846804;28;100840;-65
2020/12/26 03:06:05;;;;;;;4.77;3.07;;;2.60;99.90;;;-0.62;100.00;100958.28;4846520;28;100223;-66
2020/12/26 03:08:32;;;;;;;3.60;3.10;;;1.70;99.90;;;-0.63;100.00;100966.25;4847270;28;100229;-68
2020/12/26 03:10:58;;;;;;;6.13;4.13;;;1.80;99.90;;;-0.62;100.00;100968.81;4845868;28;100533;-67
2020/12/26 03:13:25;;;;;;;9.70;4.43;;;1.70;99.90;;;-0.67;100.00;100962.03;4846690;28;101081;-65
2020/12/26 03:15:52;;;;;;;6.90;4.33;;;1.80;99.90;;;-0.68;100.00;100966.44;4847057;28;100478;-68
2020/12/26 03:18:19;;;;;;;8.63;3.80;;;1.70;99.90;;;-0.66;100.00;100961.13;4845932;28;100112;-65
2020/12/26 03:20:45;;;;;;;5.67;3.67;;;1.90;99.90;;;-0.72;100.00;100955.22;4845421;28;100861;-67
2020/12/26 03:23:12;;;;;;;4.60;3.97;;;1.60;99.90;;;-0.72;100.00;100955.22;4845686;28;101568;-65
2020/12/26 03:25:39;;;;;;;9.80;3.93;;;1.70;99.90;;;-0.76;100.00;100964.19;4845519;28;100152;-66
2020/12/26 03:28:05;;;;;;;6.43;3.80;;;1.60;99.90;;;-0.74;100.00;100966.72;4858359;28;100334;-65
2020/12/26 03:30:32;;;;;;;7.37;4.47;;;1.60;99.90;;;-0.74;100.00;100969.34;4858994;28;102366;-66
2020/12/26 03:32:59;;;;;;;7.43;4.50;;;1.60;99.90;;;-0.75;100.00;100968.50;4844384;28;101357;-67
2020/12/26 03:35:26;;;;;;;5.83;4.13;;;1.60;99.90;;;-0.76;100.00;100969.44;4859812;28;99759;-67
2020/12/26 03:37:52;;;;;;;6.63;3.97;;;1.60;99.90;;;-0.79;100.00;100973.97;4859675;28;99703;-68
2020/12/26 03:40:19;;;;;;;7.67;4.20;;;1.50;99.90;;;-0.82;100.00;100976.72;4860098;28;103024;-65
2020/12/26 03:42:46;;;;;;;7.57;4.93;;;1.50;99.90;;;-0.81;100.00;100970.56;4845759;28;100684;-66
2020/12/26 03:45:13;;;;;;;5.27;4.40;;;1.60;99.90;;;-0.83;100.00;100973.25;4845649;28;99979;-66
2020/12/26 03:47:40;;;;;;;9.73;4.90;;;1.50;99.90;;;-0.85;100.00;100976.84;4845381;28;99699;-65
2020/12/26 03:50:07;;;;;;;8.67;4.73;;;1.50;99.90;;;-0.88;100.00;100970.00;4844946;28;100591;-67
2020/12/26 03:52:34;;;;;;;9.17;4.53;;;1.70;99.90;;;-0.91;100.00;100982.41;4859396;28;101528;-65
2020/12/26 03:55:00;;;;;;;6.07;4.03;;;1.50;99.90;;;-0.93;100.00;100981.63;4845827;28;99826;-66
2020/12/26 03:57:27;;;;;;;8.03;4.53;;;1.50;99.90;;;-0.89;100.00;100976.16;4846203;28;99779;-65
2020/12/26 03:59:53;;;;;;;7.20;5.20;;;1.50;99.90;;;-0.86;100.00;100973.38;4875164;28;101448;-65
2020/12/26 04:02:20;;;;;;;6.60;4.50;;;1.30;99.90;;;-0.92;100.00;100980.69;4845590;28;100102;-67
2020/12/26 04:04:46;;;;;;;8.90;5.40;;;1.40;99.90;;;-0.98;100.00;100976.56;4844733;28;100053;-65
2020/12/26 04:07:14;;;;;;;8.40;5.30;;;2.20;99.90;;;-0.97;100.00;100978.25;4845078;28;100471;-66
2020/12/26 04:09:41;;;;;;;6.27;5.03;;;2.00;99.90;;;-1.02;100.00;100987.28;4845041;28;100922;-66
2020/12/26 04:12:07;;;;;;;7.90;5.10;;;2.10;99.90;;;-1.06;100.00;100983.94;4844325;28;99929;-67
2020/12/26 04:14:33;;;;;;;9.43;5.27;;;1.30;99.90;;;-1.04;100.00;100992.59;4845897;28;100128;-66
2020/12/26 04:17:00;;;;;;;8.10;4.97;;;1.20;99.90;;;-1.05;100.00;100990.88;4846405;28;100700;-67
2020/12/26 04:19:27;;;;;;;7.53;4.70;;;1.20;99.90;;;-1.12;100.00;100992.09;4845405;28;101527;-64
2020/12/26 04:21:54;;;;;;;9.47;4.87;;;1.20;99.90;;;-1.07;100.00;101003.22;4846058;28;101098;-66
2020/12/26 04:24:22;;;;;;;8.87;5.07;;;1.10;99.90;;;-1.02;100.00;101003.03;4846076;28;100268;-68
2020/12/26 04:26:49;;;;;;;8.03;5.60;;;1.10;99.90;;;-1.08;100.00;101007.63;4845780;28;100108;-67
2020/12/26 04:29:15;;;;;;;6.33;5.00;;;1.30;99.90;;;-1.07;100.00;101013.75;4846010;28;101483;-67
2020/12/26 04:31:42;;;;;;;9.87;4.93;;;1.20;99.90;;;-1.14;100.00;101022.81;4845511;28;101362;-67
2020/12/26 04:34:09;;;;;;;9.20;4.80;;;1.30;99.90;;;-1.15;100.00;101015.84;4845828;28;100178;-66
2020/12/26 04:36:35;;;;;;;8.30;4.93;;;1.20;99.90;;;-1.13;100.00;101019.28;4845036;28;100163;-66
2020/12/26 04:39:02;;;;;;;7.63;4.60;;;1.30;99.90;;;-1.20;100.00;101023.91;4845331;28;101419;-65
2020/12/26 04:41:32;;;;;;;8.60;4.33;;;1.10;99.90;;;-1.13;100.00;101032.41;4845507;28;100581;-66
2020/12/26 04:44:00;;;;;;;5.70;3.67;;;1.10;99.90;;;-1.13;100.00;101028.00;4845465;28;100290;-66
2020/12/26 04:46:28;;;;;;;6.67;3.83;;;1.20;99.90;;;-1.12;100.00;101040.22;4845656;28;100208;-68
2020/12/26 04:49:05;;;;;;;6.37;4.00;;;1.30;99.90;;;-1.13;100.00;101024.53;4845864;28;101088;-66
2020/12/26 04:51:37;;;;;;;6.87;3.83;;;1.80;99.90;;;-1.13;100.00;101035.03;4875006;28;102184;-65
2020/12/26 04:54:15;;;;;;;4.77;3.40;;;1.20;99.90;;;-1.18;100.00;101035.22;4846265;28;100079;-67
2020/12/26 04:56:44;;;;;;;10.43;5.10;;;1.10;99.90;;;-1.16;100.00;101029.91;4858998;28;100322;-65
2020/12/26 04:59:12;;;;;;;5.43;3.83;;;1.10;99.90;;;-1.16;100.00;101029.91;4845734;28;100909;-66
2020/12/26 05:01:41;;;;;;;7.17;4.13;;;1.20;99.90;;;-1.21;100.00;101016.09;4844980;28;101185;-65
2020/12/26 05:04:09;;;;;;;6.47;3.63;;;2.10;99.90;;;-1.24;100.00;101030.25;4846252;28;100037;-64
2020/12/26 05:06:47;;;;;;;6.50;4.10;;;1.20;99.90;;;-1.25;100.00;101035.56;4845574;28;100211;-65
2020/12/26 05:09:16;;;;;;;8.90;3.93;;;1.00;99.90;;;-1.26;100.00;101031.22;4845960;28;101347;-65
2020/12/26 05:11:51;;;;;;;6.97;3.37;;;1.00;99.90;;;-1.28;100.00;101033.06;4844669;28;101544;-64
2020/12/26 05:14:18;;;;;;;5.73;3.30;;;1.00;99.90;;;-1.30;100.00;101032.25;4845564;28;100154;-65
2020/12/26 05:16:45;;;;;;;8.00;3.70;;;1.10;99.90;;;-1.35;100.00;101026.34;4845391;28;100162;-65
2020/12/26 05:19:11;;;;;;;4.30;3.17;;;1.10;99.90;;;-1.34;100.00;101022.78;4845632;28;101715;-65
2020/12/26 05:21:38;;;;;;;6.17;2.97;;;0.90;99.90;;;-1.32;100.00;101029.69;4844622;28;100450;-64
2020/12/26 05:24:07;;;;;;;4.80;3.53;;;1.10;99.90;;;-1.32;100.00;101015.72;4844970;28;100133;-64
2020/12/26 05:26:42;;;;;;;7.07;3.50;;;1.00;99.90;;;-1.33;100.00;101019.25;4844418;28;100623;-64
2020/12/26 05:29:11;;;;;;;4.27;3.40;;;1.10;99.90;;;-1.34;100.00;101021.03;4849388;28;100622;-64
2020/12/26 05:31:48;;;;;;;8.37;3.90;;;1.10;99.90;;;-1.37;100.00;101026.44;4844561;28;100718;-66
2020/12/26 05:34:15;;;;;;;5.63;3.20;;;1.10;99.90;;;-1.38;100.00;101023.88;4845413;28;100183;-67
2020/12/26 05:36:42;;;;;;;5.67;3.70;;;1.00;99.90;;;-1.42;100.00;101025.75;4844808;28;99975;-67
2020/12/26 05:39:11;;;;;;;6.10;3.90;;;0.80;99.90;;;-1.40;100.00;101021.28;4845663;28;100621;-64
2020/12/26 05:41:43;;;;;;;8.13;4.33;;;1.00;99.90;;;-1.35;100.00;101011.44;4844499;28;100612;-65
2020/12/26 05:44:12;;;;;;;7.87;4.07;;;0.90;99.90;;;-1.41;100.00;101022.22;4845793;28;99896;-65
2020/12/26 05:46:53;;;;;;;4.90;3.90;;;0.90;99.90;;;-1.47;100.00;101014.56;4844909;28;100256;-65
2020/12/26 05:49:29;;;;;;;7.17;3.50;;;1.00;99.90;;;-1.47;100.00;101020.69;4844671;28;101253;-67
2020/12/26 05:52:06;;;;;;;7.37;3.73;;;0.90;99.90;;;-1.51;100.00;101023.53;4845050;28;100415;-65
2020/12/26 05:54:33;;;;;;;8.10;4.10;;;0.80;99.90;;;-1.51;100.00;101018.28;4845614;28;100062;-65
2020/12/26 05:57:12;;;;;;;5.67;3.50;;;1.00;99.90;;;-1.45;100.00;101015.38;4847303;28;100060;-65
2020/12/26 05:59:41;;;;;;;7.20;3.90;;;0.90;99.90;;;-1.53;100.00;101014.84;4861072;28;102697;-65
2020/12/26 06:02:26;;;;;;;5.17;4.07;;;0.80;99.90;;;-1.53;100.00;101010.47;4853449;28;100835;-66
2020/12/26 06:04:58;;;;;;;5.30;3.90;;;0.90;99.90;;;-1.53;100.00;101015.72;4854079;28;100065;-64
2020/12/26 06:07:29;;;;;;;7.53;4.50;;;0.90;99.90;;;-1.47;100.00;101025.94;4848559;28;100387;-65
2020/12/26 06:09:58;;;;;;;9.47;4.27;;;0.80;99.90;;;-1.53;100.00;101026.22;4847735;28;100742;-65
2020/12/26 06:12:27;;;;;;;7.53;3.63;;;0.80;99.90;;;-1.51;100.00;101027.00;4847574;28;100464;-65
2020/12/26 06:14:55;;;;;;;5.43;4.07;;;0.90;99.90;;;-1.51;100.00;101026.16;4847402;28;100016;-67
2020/12/26 06:17:25;;;;;;;8.13;4.10;;;0.70;99.90;;;-1.54;100.00;101031.50;4851030;28;100093;-66
2020/12/26 06:19:57;;;;;;;10.30;4.23;;;0.80;99.90;;;-1.53;100.00;101036.69;4847010;28;102043;-65
2020/12/26 06:22:23;;;;;;;5.60;4.03;;;0.20;99.90;;;-1.57;100.00;101029.88;4847207;28;100386;-67
2020/12/26 06:24:52;;;;;;;5.77;4.47;;;0.90;99.90;;;-1.58;100.00;101032.53;4847051;28;99892;-66
2020/12/26 06:27:24;;;;;;;7.60;4.50;;;0.90;99.90;;;-1.51;100.00;101036.66;4847275;28;100125;-65
2020/12/26 06:29:51;;;;;;;4.57;3.93;;;0.80;99.90;;;-1.56;100.00;101033.34;4847365;28;100975;-66
2020/12/26 06:32:19;;;;;;;9.00;4.30;;;0.80;99.90;;;-1.57;100.00;101034.25;4846946;28;100574;-64
2020/12/26 06:34:45;;;;;;;7.17;4.73;;;0.70;99.90;;;-1.59;100.00;101036.94;4847656;28;100016;-65
2020/12/26 06:37:12;;;;;;;6.73;4.20;;;0.80;99.90;;;-1.59;100.00;101034.31;4847097;28;101631;-65
2020/12/26 06:39:39;;;;;;;7.97;4.30;;;0.90;99.90;;;-1.60;100.00;101037.84;4860779;28;102755;-64
2020/12/26 06:42:18;;;;;;;6.70;4.50;;;0.80;99.90;;;-1.51;100.00;101029.63;4846877;28;100862;-66
2020/12/26 06:44:46;;;;;;;8.40;4.90;;;1.90;99.90;;;-1.58;100.00;101043.91;4847282;28;99958;-66
2020/12/26 06:47:38;;;;;;;8.90;4.87;;;0.70;99.90;;;-1.64;100.00;101033.66;4846869;28;100284;-65
2020/12/26 06:50:20;;;;;;;6.90;4.83;;;0.70;99.90;;;-1.63;100.00;101032.75;4859906;28;101441;-65
2020/12/26 06:52:47;;;;;;;7.50;4.77;;;0.80;99.90;;;-1.67;100.00;101027.69;4847390;28;100541;-65
2020/12/26 06:55:42;;;;;;;9.13;5.07;;;0.60;99.90;;;-1.70;100.00;101027.81;4846401;28;100220;-65
2020/12/26 06:58:11;;;;;;;5.90;4.17;;;0.60;99.90;;;-1.73;100.00;101028.78;4847444;28;99884;-66
2020/12/26 07:00:38;;;;;;;7.67;4.87;;;0.50;99.90;;;-1.75;100.00;101033.25;4860690;28;103847;-66
2020/12/26 07:03:28;;;;;;;5.73;4.63;;;0.40;99.90;;;-1.87;100.00;101031.97;4847123;28;100397;-67
2020/12/26 07:05:56;;;;;;;7.40;4.33;;;0.40;99.90;;;-1.97;100.00;101027.13;4846204;28;100086;-67
2020/12/26 07:08:31;;;;;;;8.20;5.43;;;0.20;99.90;;;-2.04;100.00;101030.94;4845229;28;100131;-66
2020/12/26 07:11:02;;;;;;;8.17;5.50;;;0.10;99.90;;;-2.09;100.00;101027.63;4846157;28;100702;-66
2020/12/26 07:13:50;;;;;;;12.43;5.80;;;0.20;99.90;;;-2.08;100.00;101026.72;4846921;28;100498;-66
2020/12/26 07:16:45;;;;;;;13.83;5.83;;;0.00;99.90;;;-1.99;100.00;101029.00;4846446;28;99914;-65
2020/12/26 07:19:37;;;;;;;8.47;5.67;;;-0.10;99.90;;;-2.14;100.00;101032.22;4846893;28;100168;-67
2020/12/26 07:22:06;;;;;;;6.47;5.17;;;0.60;99.90;;;-2.19;100.00;101029.75;4860587;28;102200;-65
2020/12/26 07:24:36;;;;;;;9.67;6.20;;;0.20;99.90;;;-2.24;100.00;101026.47;4846523;28;100271;-67
2020/12/26 07:27:24;;;;;;;13.63;5.80;;;-0.20;99.90;;;-2.15;100.00;101031.34;4853426;28;100100;-65
2020/12/26 07:30:09;;;;;;;17.50;6.63;;;-0.30;99.90;;;-2.24;100.00;101032.56;4866012;28;100042;-65
2020/12/26 07:32:48;;;;;;;11.00;5.63;;;-0.40;99.90;;;-2.32;100.00;101029.38;4865413;28;100257;-65
2020/12/26 07:35:33;;;;;;;13.50;6.23;;;-0.40;99.90;;;-2.32;100.00;101028.50;4864624;28;101716;-65
2020/12/26 07:38:07;;;;;;;18.07;10.17;;;-0.40;99.90;;;-2.28;100.00;101030.13;4864997;28;100020;-64
2020/12/26 07:40:35;;;;;;;20.53;12.30;;;-0.50;99.90;;;-2.14;100.00;101027.81;4864955;28;100723;-64
2020/12/26 07:43:04;;;;;;;64.37;17.33;;;-0.30;99.90;;;-1.92;100.00;101041.78;4879174;28;103042;-66
2020/12/26 07:45:32;;;;;;;48.23;11.37;;;-0.20;99.90;;;-1.88;100.00;101051.25;4864852;28;100369;-65
2020/12/26 07:48:01;;;;;;;12.77;6.67;;;0.10;99.90;;;-1.98;100.00;101049.06;4866842;28;100097;-66
2020/12/26 07:50:31;;;;;;;15.27;10.63;;;0.30;99.90;;;-1.92;100.00;101052.28;4866277;28;100398;-66
2020/12/26 07:52:59;;;;;;;17.20;9.50;;;0.40;99.90;;;-1.86;100.00;101054.69;4865781;28;100781;-67
2020/12/26 07:55:27;;;;;;;12.40;7.67;;;0.70;99.90;;;-1.82;100.00;101045.75;4864378;28;100012;-64
2020/12/26 07:58:06;;;;;;;12.87;8.70;;;1.80;99.90;;;-1.54;100.00;101052.50;4863059;28;99850;-65
2020/12/26 08:00:36;;;;;;;14.03;7.47;;;0.80;99.90;;;-1.53;100.00;101054.22;4862383;28;100190;-66
2020/12/26 08:03:07;;;;;;;12.90;7.33;;;1.20;99.90;;;-1.58;100.00;101049.16;4863251;28;100843;-65
2020/12/26 08:05:37;;;;;;;9.77;7.73;;;1.20;99.90;;;-1.52;100.00;101048.06;4862400;28;100217;-66
2020/12/26 08:08:13;;;;;;;8.63;6.47;;;1.40;99.90;;;-1.47;100.00;101054.81;4863992;28;100125;-65
2020/12/26 08:10:40;;;;;;;10.90;6.83;;;1.60;99.90;;;-1.45;100.00;101060.00;4863424;28;100209;-67
2020/12/26 08:13:13;;;;;;;9.90;7.00;;;2.50;99.90;;;-1.32;100.00;101063.81;4864084;28;100542;-66
2020/12/26 08:15:40;;;;;;;13.03;7.00;;;1.80;99.90;;;-1.26;100.00;101062.72;4862665;28;100883;-65
2020/12/26 08:18:07;;;;;;;9.47;6.47;;;1.90;99.90;;;-1.29;100.00;101054.97;4863536;28;100053;-65
2020/12/26 08:20:36;;;;;;;13.30;6.57;;;2.00;99.90;;;-1.25;100.00;101056.56;4877088;28;100251;-67
2020/12/26 08:23:03;;;;;;;10.30;7.13;;;2.20;99.90;;;-1.34;100.00;101059.53;4863441;28;100858;-65
2020/12/26 08:25:31;;;;;;;8.63;6.80;;;2.00;99.90;;;-1.23;100.00;101054.69;4861641;28;101317;-66
2020/12/26 08:28:01;;;;;;;10.03;6.53;;;2.30;99.90;;;-1.15;100.00;101055.25;4863721;28;99891;-66
2020/12/26 08:30:32;;;;;;;11.37;6.47;;;2.40;99.90;;;-1.15;100.00;101050.84;4863719;28;100178;-66
2020/12/26 08:33:29;;;;;;;10.77;6.30;;;2.30;99.90;;;-1.12;100.00;101057.75;4863458;28;100943;-67
2020/12/26 08:36:05;;;;;;;8.70;5.80;;;2.30;99.90;;;-1.00;100.00;101051.13;4863018;28;99918;-65
2020/12/26 08:38:42;;;;;;;10.87;6.13;;;2.60;99.90;;;-0.69;100.00;101054.09;4862873;28;99958;-66
2020/12/26 08:41:12;;;;;;;14.37;8.70;;;2.50;99.90;;;-0.70;100.00;101052.38;4860914;28;100137;-65
2020/12/26 08:43:39;;;;;;;9.90;6.87;;;2.70;99.90;;;-0.68;100.00;101049.69;4862933;28;101214;-65
2020/12/26 08:46:13;;;;;;;7.40;6.30;;;2.80;99.90;;;-0.62;100.00;101045.03;4862631;28;100804;-67
2020/12/26 08:48:41;;;;;;;11.80;6.40;;;3.00;99.90;;;-0.52;100.00;101045.47;4860735;28;100093;-68
2020/12/26 08:51:18;;;;;;;9.27;5.83;;;3.10;99.90;;;-0.62;100.00;101042.41;4863161;28;99959;-65
2020/12/26 08:53:46;;;;;;;8.27;5.73;;;3.10;99.90;;;-0.73;100.00;101049.88;4862162;28;101824;-66
2020/12/26 08:56:13;;;;;;;9.27;6.70;;;3.40;99.90;;;-0.51;100.00;101055.91;4862431;28;101255;-66
2020/12/26 08:58:48;;;;;;;15.37;8.13;;;3.40;99.90;;;-0.38;100.00;101057.06;4876643;28;100264;-64
2020/12/26 09:01:16;;;;;;;15.17;8.70;;;3.40;99.90;;;-0.32;100.00;101058.53;4862517;28;100427;-66
2020/12/26 09:03:49;;;;;;;9.57;6.03;;;3.60;99.90;;;-0.19;100.00;101059.69;4863635;28;101088;-65
2020/12/26 09:06:29;;;;;;;9.60;5.77;;;3.50;99.90;;;-0.17;100.00;101059.63;4863315;28;100811;-64
2020/12/26 09:08:56;;;;;;;8.40;5.90;;;3.70;99.90;;;-0.13;100.00;101058.56;4863572;28;99956;-66
2020/12/26 09:11:30;;;;;;;9.83;4.70;;;3.80;99.90;;;-0.08;100.00;101061.81;4862581;28;100267;-68
2020/12/26 09:13:56;;;;;;;5.97;5.17;;;4.10;99.90;;;-0.01;100.00;101060.63;4862413;28;101248;-65
2020/12/26 09:16:28;;;;;;;8.73;5.33;;;4.00;99.90;;;0.16;100.00;101063.28;4875700;28;101444;-67
2020/12/26 09:19:01;;;;;;;7.90;4.80;;;4.20;99.90;;;0.37;100.00;101056.16;4862237;28;99807;-66
2020/12/26 09:21:29;;;;;;;8.07;4.90;;;4.30;99.90;;;0.31;100.00;101067.81;4862637;28;100167;-66
2020/12/26 09:23:58;;;;;;;7.03;4.80;;;4.50;99.90;;;0.31;100.00;101070.44;4862957;28;101060;-64
2020/12/26 09:26:29;;;;;;;6.57;4.63;;;4.60;99.90;;;0.27;100.00;101068.03;4861927;28;100961;-66
2020/12/26 09:28:57;;;;;;;8.77;5.07;;;5.50;99.90;;;0.40;100.00;101065.66;4864026;28;100124;-66
2020/12/26 09:31:26;;;;;;;8.87;5.17;;;4.90;99.90;;;0.38;100.00;101071.00;4926160;28;100178;-65
2020/12/26 09:33:55;;;;;;;11.27;7.37;;;4.70;99.90;;;0.29;100.00;101067.03;4940656;28;101084;-67
2020/12/26 09:36:24;;;;;;;9.33;6.30;;;6.00;99.90;;;0.36;100.00;101070.22;4923508;28;101052;-66
2020/12/26 09:38:53;;;;;;;7.43;5.67;;;4.70;99.90;;;0.09;100.00;101080.28;4968968;28;100189;-67
2020/12/26 09:41:21;;;;;;;7.80;4.73;;;4.60;99.90;;;0.27;100.00;101066.25;4968294;28;100429;-66
2020/12/26 09:43:51;;;;;;;6.20;4.67;;;4.50;99.90;;;0.45;100.00;101063.66;4923328;28;103271;-66
2020/12/26 09:46:21;;;;;;;6.80;4.77;;;4.50;99.90;;;0.47;100.00;101064.44;4881919;28;101156;-64
2020/12/26 09:48:48;;;;;;;7.20;4.70;;;4.50;99.90;;;0.20;100.00;101070.13;4868153;28;100105;-65
2020/12/26 09:51:17;;;;;;;7.60;5.73;;;4.60;99.90;;;0.11;100.00;101065.28;4868201;28;100466;-66
2020/12/26 09:53:45;;;;;;;6.63;4.63;;;4.50;99.60;;;0.05;100.00;101062.94;4868076;28;100967;-66
2020/12/26 09:56:13;;;;;;;7.13;4.53;;;4.30;99.90;;;0.08;100.00;101048.78;4870002;28;101114;-66
2020/12/26 09:58:42;;;;;;;7.17;4.93;;;4.10;99.90;;;0.09;100.00;101043.47;4870966;28;100078;-65
2020/12/26 10:01:12;;;;;;;11.43;5.47;;;4.00;99.90;;;0.30;100.00;101052.09;4871091;28;100097;-67
2020/12/26 10:03:39;;;;;;;9.00;4.70;;;3.80;99.90;;;0.13;100.00;101052.88;4869607;28;100942;-64
2020/12/26 10:06:10;;;;;;;6.63;4.70;;;3.80;99.90;;;0.07;100.00;101045.31;4870035;28;100252;-65
2020/12/26 10:08:36;;;;;;;8.87;4.57;;;3.70;99.90;;;-0.03;100.00;101060.69;4868438;28;100043;-65
2020/12/26 10:11:03;;;;;;;7.07;4.03;;;3.60;99.90;;;0.06;100.00;101055.91;4868229;28;99827;-66
2020/12/26 10:13:30;;;;;;;6.60;4.50;;;3.40;99.90;;;0.16;100.00;101062.44;4867527;28;101445;-65
2020/12/26 10:15:57;;;;;;;7.43;4.90;;;3.30;99.90;;;0.11;100.00;101064.44;4868041;28;100816;-67